sensor_id;sensor_type;location;lat;lon;timestamp;pressure;altitude;pressure_sealevel;temperature;humidity
68075;BME280;54864;52.002;5.468;2022-09-28T00:00:51;99437.63;;;10.78;71.47
68075;BME280;54864;52.002;5.468;2022-09-28T00:01:56;99428.03;;;10.77;71.23
68075;BME280;54864;52.002;5.468;2022-09-28T00:02:59;99416.97;;;10.72;71.00
68075;BME280;54864;52.002;5.468;2022-09-28T00:04:00;99414.13;;;10.75;70.84
68075;BME280;54864;52.002;5.468;2022-09-28T00:05:03;99430.34;;;10.82;70.88
68075;BME280;54864;52.002;5.468;2022-09-28T00:06:07;99419.38;;;10.75;70.92
68075;BME280;54864;52.002;5.468;2022-09-28T00:07:11;99414.22;;;10.73;70.97
68075;BME280;54864;52.002;5.468;2022-09-28T00:08:12;99424.25;;;10.81;70.59
68075;BME280;54864;52.002;5.468;2022-09-28T00:09:15;99429.41;;;10.83;70.39
68075;BME280;54864;52.002;5.468;2022-09-28T00:10:17;99428.78;;;10.79;70.59
68075;BME280;54864;52.002;5.468;2022-09-28T00:11:24;99433.22;;;10.78;70.67
68075;BME280;54864;52.002;5.468;2022-09-28T00:12:27;99413.16;;;10.63;70.81
68075;BME280;54864;52.002;5.468;2022-09-28T00:13:31;99421.50;;;10.70;70.47
68075;BME280;54864;52.002;5.468;2022-09-28T00:14:32;99420.44;;;10.60;70.47
68075;BME280;54864;52.002;5.468;2022-09-28T00:15:34;99431.41;;;10.66;70.35
68075;BME280;54864;52.002;5.468;2022-09-28T00:16:38;99421.59;;;10.56;70.14
68075;BME280;54864;52.002;5.468;2022-09-28T00:17:44;99419.81;;;10.56;69.92
68075;BME280;54864;52.002;5.468;2022-09-28T00:18:45;99415.91;;;10.49;70.20
68075;BME280;54864;52.002;5.468;2022-09-28T00:19:48;99424.53;;;10.51;70.21
68075;BME280;54864;52.002;5.468;2022-09-28T00:20:59;99431.41;;;10.54;70.06
68075;BME280;54864;52.002;5.468;2022-09-28T00:22:02;99435.72;;;10.55;69.85
68075;BME280;54864;52.002;5.468;2022-09-28T00:23:04;99428.53;;;10.44;69.89
68075;BME280;54864;52.002;5.468;2022-09-28T00:24:06;99425.53;;;10.36;69.99
68075;BME280;54864;52.002;5.468;2022-09-28T00:25:18;99420.38;;;10.34;70.10
68075;BME280;54864;52.002;5.468;2022-09-28T00:26:21;99429.28;;;10.46;69.56
68075;BME280;54864;52.002;5.468;2022-09-28T00:27:23;99429.97;;;10.35;69.67
68075;BME280;54864;52.002;5.468;2022-09-28T00:28:25;99434.19;;;10.38;69.97
68075;BME280;54864;52.002;5.468;2022-09-28T00:29:28;99428.47;;;10.31;70.11
68075;BME280;54864;52.002;5.468;2022-09-28T00:30:31;99433.09;;;10.28;70.32
68075;BME280;54864;52.002;5.468;2022-09-28T00:31:33;99427.00;;;10.27;70.16
68075;BME280;54864;52.002;5.468;2022-09-28T00:32:36;99433.50;;;10.22;70.19
68075;BME280;54864;52.002;5.468;2022-09-28T00:33:38;99426.78;;;10.30;70.17
68075;BME280;54864;52.002;5.468;2022-09-28T00:34:42;99437.34;;;10.30;70.35
68075;BME280;54864;52.002;5.468;2022-09-28T00:35:45;99432.66;;;10.21;70.08
68075;BME280;54864;52.002;5.468;2022-09-28T00:36:46;99432.56;;;10.23;70.13
68075;BME280;54864;52.002;5.468;2022-09-28T00:37:49;99422.31;;;10.18;70.27
68075;BME280;54864;52.002;5.468;2022-09-28T00:38:50;99431.16;;;10.17;70.43
68075;BME280;54864;52.002;5.468;2022-09-28T00:39:52;99437.38;;;10.16;70.37
68075;BME280;54864;52.002;5.468;2022-09-28T00:40:53;99421.78;;;10.13;70.38
68075;BME280;54864;52.002;5.468;2022-09-28T00:41:56;99432.75;;;10.20;70.31
68075;BME280;54864;52.002;5.468;2022-09-28T00:43:17;99427.88;;;10.13;70.15
68075;BME280;54864;52.002;5.468;2022-09-28T00:44:32;99415.84;;;10.09;70.19
68075;BME280;54864;52.002;5.468;2022-09-28T00:45:37;99426.41;;;10.09;70.09
68075;BME280;54864;52.002;5.468;2022-09-28T00:46:38;99421.53;;;10.03;70.22
68075;BME280;54864;52.002;5.468;2022-09-28T00:47:45;99425.44;;;10.10;70.27
68075;BME280;54864;52.002;5.468;2022-09-28T00:48:57;99426.09;;;10.14;69.86
68075;BME280;54864;52.002;5.468;2022-09-28T00:50:06;99419.88;;;10.15;69.88
68075;BME280;54864;52.002;5.468;2022-09-28T00:51:13;99429.63;;;10.00;70.19
68075;BME280;54864;52.002;5.468;2022-09-28T00:52:19;99424.47;;;9.99;70.23
68075;BME280;54864;52.002;5.468;2022-09-28T00:53:28;99422.03;;;9.96;70.33
68075;BME280;54864;52.002;5.468;2022-09-28T00:54:34;99410.22;;;9.89;70.08
68075;BME280;54864;52.002;5.468;2022-09-28T00:55:39;99416.03;;;9.94;69.85
68075;BME280;54864;52.002;5.468;2022-09-28T00:56:45;99400.09;;;9.82;70.48
68075;BME280;54864;52.002;5.468;2022-09-28T00:57:51;99418.31;;;9.85;70.28
68075;BME280;54864;52.002;5.468;2022-09-28T00:58:56;99417.06;;;9.91;70.29
68075;BME280;54864;52.002;5.468;2022-09-28T01:00:01;99409.97;;;9.79;69.92
68075;BME280;54864;52.002;5.468;2022-09-28T01:01:04;99412.09;;;9.87;70.04
68075;BME280;54864;52.002;5.468;2022-09-28T01:02:06;99412.09;;;9.87;70.13
68075;BME280;54864;52.002;5.468;2022-09-28T01:03:09;99409.03;;;9.80;70.17
68075;BME280;54864;52.002;5.468;2022-09-28T01:04:15;99405.91;;;9.73;70.22
68075;BME280;54864;52.002;5.468;2022-09-28T01:05:17;99405.81;;;9.75;70.54
68075;BME280;54864;52.002;5.468;2022-09-28T01:06:23;99401.16;;;9.66;70.25
68075;BME280;54864;52.002;5.468;2022-09-28T01:07:30;99405.75;;;9.76;70.19
68075;BME280;54864;52.002;5.468;2022-09-28T01:08:35;99401.16;;;9.66;70.35
68075;BME280;54864;52.002;5.468;2022-09-28T01:09:38;99406.09;;;9.70;70.22
68075;BME280;54864;52.002;5.468;2022-09-28T01:10:40;99404.81;;;9.63;70.34
68075;BME280;54864;52.002;5.468;2022-09-28T01:11:42;99399.25;;;9.68;70.06
68075;BME280;54864;52.002;5.468;2022-09-28T01:12:45;99410.72;;;9.67;70.35
68075;BME280;54864;52.002;5.468;2022-09-28T01:13:47;99405.75;;;9.62;70.64
68075;BME280;54864;52.002;5.468;2022-09-28T01:14:53;99410.81;;;9.65;70.70
68075;BME280;54864;52.002;5.468;2022-09-28T01:15:58;99399.09;;;9.57;70.13
68075;BME280;54864;52.002;5.468;2022-09-28T01:17:13;99411.88;;;9.63;70.68
68075;BME280;54864;52.002;5.468;2022-09-28T01:18:20;99406.59;;;9.63;70.71
68075;BME280;54864;52.002;5.468;2022-09-28T01:19:53;99402.97;;;9.51;70.95
68075;BME280;54864;52.002;5.468;2022-09-28T01:21:10;99419.78;;;9.48;71.00
68075;BME280;54864;52.002;5.468;2022-09-28T01:22:27;99397.31;;;9.57;71.21
68075;BME280;54864;52.002;5.468;2022-09-28T01:23:57;99406.81;;;9.60;71.41
68075;BME280;54864;52.002;5.468;2022-09-28T01:25:12;99416.09;;;9.65;71.28
68075;BME280;54864;52.002;5.468;2022-09-28T01:26:40;99414.94;;;9.69;71.17
68075;BME280;54864;52.002;5.468;2022-09-28T01:27:51;99409.22;;;9.63;71.66
68075;BME280;54864;52.002;5.468;2022-09-28T01:29:02;99410.09;;;9.63;72.06
68075;BME280;54864;52.002;5.468;2022-09-28T01:30:13;99408.09;;;9.67;71.94
68075;BME280;54864;52.002;5.468;2022-09-28T01:31:21;99402.19;;;9.63;72.03
68075;BME280;54864;52.002;5.468;2022-09-28T01:32:35;99403.69;;;9.67;71.75
68075;BME280;54864;52.002;5.468;2022-09-28T01:33:44;99398.41;;;9.67;71.71
68075;BME280;54864;52.002;5.468;2022-09-28T01:34:57;99411.47;;;9.69;71.57
68075;BME280;54864;52.002;5.468;2022-09-28T01:36:09;99410.81;;;9.79;71.46
68075;BME280;54864;52.002;5.468;2022-09-28T01:37:17;99396.44;;;9.71;71.39
68075;BME280;54864;52.002;5.468;2022-09-28T01:38:27;99406.50;;;9.78;71.72
68075;BME280;54864;52.002;5.468;2022-09-28T01:39:35;99406.19;;;9.83;71.32
68075;BME280;54864;52.002;5.468;2022-09-28T01:40:42;99406.00;;;9.86;71.35
68075;BME280;54864;52.002;5.468;2022-09-28T01:41:49;99399.25;;;9.68;71.41
68075;BME280;54864;52.002;5.468;2022-09-28T01:43:01;99400.00;;;9.70;71.55
68075;BME280;54864;52.002;5.468;2022-09-28T01:44:05;99401.69;;;9.71;71.69
68075;BME280;54864;52.002;5.468;2022-09-28T01:45:16;99401.50;;;9.74;71.77
68075;BME280;54864;52.002;5.468;2022-09-28T01:46:26;99409.22;;;9.77;71.60
68075;BME280;54864;52.002;5.468;2022-09-28T01:47:36;99401.88;;;9.82;71.70
68075;BME280;54864;52.002;5.468;2022-09-28T01:48:45;99400.09;;;9.82;71.51
68075;BME280;54864;52.002;5.468;2022-09-28T01:49:55;99398.00;;;9.88;71.37
68075;BME280;54864;52.002;5.468;2022-09-28T01:51:08;99396.22;;;9.88;71.65
68075;BME280;54864;52.002;5.468;2022-09-28T01:52:19;99397.69;;;9.92;71.62
68075;BME280;54864;52.002;5.468;2022-09-28T01:53:31;99396.22;;;9.88;72.18
68075;BME280;54864;52.002;5.468;2022-09-28T01:54:40;99404.31;;;9.85;72.38
68075;BME280;54864;52.002;5.468;2022-09-28T01:55:48;99408.31;;;9.91;72.27
68075;BME280;54864;52.002;5.468;2022-09-28T01:56:57;99409.72;;;9.96;72.18
68075;BME280;54864;52.002;5.468;2022-09-28T01:58:10;99397.41;;;9.97;72.18
68075;BME280;54864;52.002;5.468;2022-09-28T01:59:17;99394.47;;;10.01;72.19
68075;BME280;54864;52.002;5.468;2022-09-28T02:00:23;99398.69;;;10.04;72.11
68075;BME280;54864;52.002;5.468;2022-09-28T02:01:30;99395.84;;;10.07;71.90
68075;BME280;54864;52.002;5.468;2022-09-28T02:02:39;99392.25;;;10.08;71.56
68075;BME280;54864;52.002;5.468;2022-09-28T02:03:52;99391.63;;;10.04;71.39
68075;BME280;54864;52.002;5.468;2022-09-28T02:05:04;99398.38;;;10.08;71.75
68075;BME280;54864;52.002;5.468;2022-09-28T02:06:14;99392.91;;;10.11;71.63
68075;BME280;54864;52.002;5.468;2022-09-28T02:07:24;99392.16;;;10.09;71.73
68075;BME280;54864;52.002;5.468;2022-09-28T02:08:33;99393.00;;;10.10;71.36
68075;BME280;54864;52.002;5.468;2022-09-28T02:09:41;99393.94;;;10.09;71.41
68075;BME280;54864;52.002;5.468;2022-09-28T02:10:49;99397.63;;;10.06;71.46
68075;BME280;54864;52.002;5.468;2022-09-28T02:12:00;99401.09;;;10.07;71.75
68075;BME280;54864;52.002;5.468;2022-09-28T02:13:08;99399.53;;;10.04;71.49
68075;BME280;54864;52.002;5.468;2022-09-28T02:14:16;99401.31;;;10.04;71.82
68075;BME280;54864;52.002;5.468;2022-09-28T02:15:22;99398.56;;;10.05;71.88
68075;BME280;54864;52.002;5.468;2022-09-28T02:16:31;99401.75;;;10.10;71.66
68075;BME280;54864;52.002;5.468;2022-09-28T02:17:37;99395.00;;;10.06;71.74
68075;BME280;54864;52.002;5.468;2022-09-28T02:18:39;99391.72;;;10.03;71.83
68075;BME280;54864;52.002;5.468;2022-09-28T02:19:42;99398.28;;;10.10;71.41
68075;BME280;54864;52.002;5.468;2022-09-28T02:20:50;99400.69;;;10.13;71.37
68075;BME280;54864;52.002;5.468;2022-09-28T02:21:58;99401.13;;;10.20;71.41
68075;BME280;54864;52.002;5.468;2022-09-28T02:23:06;99408.13;;;10.21;71.43
68075;BME280;54864;52.002;5.468;2022-09-28T02:24:14;99393.34;;;10.18;71.29
68075;BME280;54864;52.002;5.468;2022-09-28T02:25:22;99392.06;;;10.11;71.51
68075;BME280;54864;52.002;5.468;2022-09-28T02:26:36;99402.09;;;10.18;71.38
68075;BME280;54864;52.002;5.468;2022-09-28T02:27:49;99412.34;;;10.23;71.41
68075;BME280;54864;52.002;5.468;2022-09-28T02:28:55;99400.28;;;10.19;71.17
68075;BME280;54864;52.002;5.468;2022-09-28T02:29:59;99386.78;;;10.11;71.38
68075;BME280;54864;52.002;5.468;2022-09-28T02:31:00;99390.59;;;10.20;70.73
68075;BME280;54864;52.002;5.468;2022-09-28T02:32:02;99390.06;;;10.14;71.23
68075;BME280;54864;52.002;5.468;2022-09-28T02:33:11;99397.75;;;10.17;71.27
68075;BME280;54864;52.002;5.468;2022-09-28T02:34:15;99389.84;;;10.17;71.15
68075;BME280;54864;52.002;5.468;2022-09-28T02:35:17;99388.59;;;10.10;70.70
68075;BME280;54864;52.002;5.468;2022-09-28T02:36:20;99398.16;;;10.11;71.14
68075;BME280;54864;52.002;5.468;2022-09-28T02:37:22;99388.84;;;10.20;71.45
68075;BME280;54864;52.002;5.468;2022-09-28T02:38:24;99398.50;;;10.20;71.17
68075;BME280;54864;52.002;5.468;2022-09-28T02:39:25;99403.69;;;10.21;71.24
68075;BME280;54864;52.002;5.468;2022-09-28T02:40:30;99389.97;;;10.16;71.28
68075;BME280;54864;52.002;5.468;2022-09-28T02:41:40;99403.69;;;10.21;71.53
68075;BME280;54864;52.002;5.468;2022-09-28T02:43:01;99398.81;;;10.15;71.54
68075;BME280;54864;52.002;5.468;2022-09-28T02:44:17;99405.56;;;10.19;72.00
68075;BME280;54864;52.002;5.468;2022-09-28T02:45:49;99405.72;;;10.30;71.60
68075;BME280;54864;52.002;5.468;2022-09-28T02:47:08;99400.56;;;10.29;71.58
68075;BME280;54864;52.002;5.468;2022-09-28T02:48:27;99395.50;;;10.26;71.94
68075;BME280;54864;52.002;5.468;2022-09-28T02:49:45;99399.59;;;10.30;72.21
68075;BME280;54864;52.002;5.468;2022-09-28T02:50:59;99403.41;;;10.26;72.25
68075;BME280;54864;52.002;5.468;2022-09-28T02:52:18;99409.41;;;10.28;72.74
68075;BME280;54864;52.002;5.468;2022-09-28T02:55:39;99411.00;;;10.30;72.63
68075;BME280;54864;52.002;5.468;2022-09-28T02:57:02;99405.50;;;10.33;72.65
68075;BME280;54864;52.002;5.468;2022-09-28T02:58:29;99405.41;;;10.35;72.89
68075;BME280;54864;52.002;5.468;2022-09-28T02:59:44;99408.16;;;10.33;72.72
68075;BME280;54864;52.002;5.468;2022-09-28T03:00:55;99410.69;;;10.35;72.53
68075;BME280;54864;52.002;5.468;2022-09-28T03:02:12;99409.53;;;10.39;72.24
68075;BME280;54864;52.002;5.468;2022-09-28T03:03:30;99412.16;;;10.39;72.30
68075;BME280;54864;52.002;5.468;2022-09-28T03:04:48;99407.00;;;10.37;72.03
68075;BME280;54864;52.002;5.468;2022-09-28T03:06:03;99404.47;;;10.36;71.74
68075;BME280;54864;52.002;5.468;2022-09-28T03:07:15;99406.56;;;10.31;71.82
68075;BME280;54864;52.002;5.468;2022-09-28T03:08:28;99408.78;;;10.37;71.56
68075;BME280;54864;52.002;5.468;2022-09-28T03:09:39;99411.31;;;10.38;71.05
68075;BME280;54864;52.002;5.468;2022-09-28T03:10:53;99407.50;;;10.30;70.97
68075;BME280;54864;52.002;5.468;2022-09-28T03:12:02;99406.88;;;10.26;71.23
68075;BME280;54864;52.002;5.468;2022-09-28T03:13:08;99404.13;;;10.28;71.07
68075;BME280;54864;52.002;5.468;2022-09-28T03:14:16;99409.84;;;10.34;70.45
68075;BME280;54864;52.002;5.468;2022-09-28T03:15:20;99412.56;;;10.33;70.56
68075;BME280;54864;52.002;5.468;2022-09-28T03:16:24;99411.94;;;10.29;70.24
68075;BME280;54864;52.002;5.468;2022-09-28T03:17:26;99409.50;;;10.26;70.42
68075;BME280;54864;52.002;5.468;2022-09-28T03:18:28;99414.31;;;10.20;70.80
68075;BME280;54864;52.002;5.468;2022-09-28T03:19:32;99417.63;;;10.23;70.45
68075;BME280;54864;52.002;5.468;2022-09-28T03:20:39;99397.88;;;10.16;70.56
68075;BME280;54864;52.002;5.468;2022-09-28T03:21:42;99414.31;;;10.20;70.52
68075;BME280;54864;52.002;5.468;2022-09-28T03:22:42;99406.91;;;10.12;70.58
68075;BME280;54864;52.002;5.468;2022-09-28T03:23:45;99414.81;;;10.12;70.61
68075;BME280;54864;52.002;5.468;2022-09-28T03:24:47;99401.41;;;10.02;70.46
68075;BME280;54864;52.002;5.468;2022-09-28T03:25:49;99414.56;;;10.02;70.50
68075;BME280;54864;52.002;5.468;2022-09-28T03:26:50;99402.66;;;9.97;70.28
68075;BME280;54864;52.002;5.468;2022-09-28T03:27:55;99401.38;;;9.90;70.47
68075;BME280;54864;52.002;5.468;2022-09-28T03:28:57;99419.00;;;10.02;70.43
68075;BME280;54864;52.002;5.468;2022-09-28T03:30:00;99419.19;;;9.99;70.24
68075;BME280;54864;52.002;5.468;2022-09-28T03:31:01;99417.06;;;9.91;70.40
68075;BME280;54864;52.002;5.468;2022-09-28T03:32:04;99411.59;;;9.94;70.31
68075;BME280;54864;52.002;5.468;2022-09-28T03:33:05;99416.97;;;9.93;70.45
68075;BME280;54864;52.002;5.468;2022-09-28T03:34:07;99407.69;;;9.87;70.17
68075;BME280;54864;52.002;5.468;2022-09-28T03:35:08;99402.28;;;9.76;70.51
68075;BME280;54864;52.002;5.468;2022-09-28T03:36:23;99415.97;;;9.81;70.26
68075;BME280;54864;52.002;5.468;2022-09-28T03:37:26;99400.66;;;9.73;70.13
68075;BME280;54864;52.002;5.468;2022-09-28T03:38:27;99402.44;;;9.73;70.29
68075;BME280;54864;52.002;5.468;2022-09-28T03:39:29;99410.16;;;9.76;70.25
68075;BME280;54864;52.002;5.468;2022-09-28T03:40:30;99408.53;;;9.73;70.10
68075;BME280;54864;52.002;5.468;2022-09-28T03:41:32;99402.94;;;9.65;70.29
68075;BME280;54864;52.002;5.468;2022-09-28T03:42:36;99405.00;;;9.60;70.19
68075;BME280;54864;52.002;5.468;2022-09-28T03:43:38;99406.50;;;9.64;70.04
68075;BME280;54864;52.002;5.468;2022-09-28T03:44:39;99400.25;;;9.52;70.33
68075;BME280;54864;52.002;5.468;2022-09-28T03:45:43;99412.91;;;9.60;70.52
68075;BME280;54864;52.002;5.468;2022-09-28T03:46:51;99412.91;;;9.60;70.33
68075;BME280;54864;52.002;5.468;2022-09-28T03:47:53;99406.91;;;9.58;70.09
68075;BME280;54864;52.002;5.468;2022-09-28T03:48:55;99399.41;;;9.52;70.17
68075;BME280;54864;52.002;5.468;2022-09-28T03:49:58;99406.09;;;9.43;70.52
68075;BME280;54864;52.002;5.468;2022-09-28T03:51:00;99401.56;;;9.45;70.45
68075;BME280;54864;52.002;5.468;2022-09-28T03:52:11;99400.72;;;9.45;70.21
68075;BME280;54864;52.002;5.468;2022-09-28T03:53:13;99400.53;;;9.48;70.11
68075;BME280;54864;52.002;5.468;2022-09-28T03:54:15;99408.44;;;9.48;70.74
68075;BME280;54864;52.002;5.468;2022-09-28T03:55:16;99402.91;;;9.38;70.60
68075;BME280;54864;52.002;5.468;2022-09-28T03:56:18;99404.69;;;9.38;70.26
68075;BME280;54864;52.002;5.468;2022-09-28T03:57:19;99389.94;;;9.35;70.24
68075;BME280;54864;52.002;5.468;2022-09-28T03:58:26;99400.47;;;9.35;70.32
68075;BME280;54864;52.002;5.468;2022-09-28T03:59:27;99397.19;;;9.32;70.62
68075;BME280;54864;52.002;5.468;2022-09-28T04:00:32;99388.47;;;9.31;70.63
68075;BME280;54864;52.002;5.468;2022-09-28T04:01:39;99409.00;;;9.39;70.16
68075;BME280;54864;52.002;5.468;2022-09-28T04:02:41;99394.75;;;9.29;70.40
68075;BME280;54864;52.002;5.468;2022-09-28T04:03:46;99409.41;;;9.33;70.71
68075;BME280;54864;52.002;5.468;2022-09-28T04:04:53;99410.34;;;9.32;70.73
68075;BME280;54864;52.002;5.468;2022-09-28T04:05:54;99400.66;;;9.32;70.72
68075;BME280;54864;52.002;5.468;2022-09-28T04:06:56;99392.88;;;9.31;70.39
68075;BME280;54864;52.002;5.468;2022-09-28T04:07:57;99391.56;;;9.24;70.59
68075;BME280;54864;52.002;5.468;2022-09-28T04:09:02;99396.28;;;9.18;70.64
68075;BME280;54864;52.002;5.468;2022-09-28T04:10:04;99389.31;;;9.32;70.18
68075;BME280;54864;52.002;5.468;2022-09-28T04:11:07;99399.81;;;9.32;70.20
68075;BME280;54864;52.002;5.468;2022-09-28T04:12:07;99390.06;;;9.19;70.58
68075;BME280;54864;52.002;5.468;2022-09-28T04:13:10;99396.19;;;9.20;70.64
68075;BME280;54864;52.002;5.468;2022-09-28T04:14:11;99393.75;;;9.17;70.53
68075;BME280;54864;52.002;5.468;2022-09-28T04:15:13;99392.16;;;9.14;70.37
68075;BME280;54864;52.002;5.468;2022-09-28T04:16:14;99401.53;;;9.18;70.45
68075;BME280;54864;52.002;5.468;2022-09-28T04:17:18;99389.31;;;9.17;70.49
68075;BME280;54864;52.002;5.468;2022-09-28T04:18:19;99387.34;;;9.07;70.42
68075;BME280;54864;52.002;5.468;2022-09-28T04:19:22;99402.16;;;9.08;70.23
68075;BME280;54864;52.002;5.468;2022-09-28T04:20:23;99398.59;;;9.09;70.46
68075;BME280;54864;52.002;5.468;2022-09-28T04:21:25;99405.53;;;9.10;70.57
68075;BME280;54864;52.002;5.468;2022-09-28T04:22:30;99394.09;;;8.97;70.17
68075;BME280;54864;52.002;5.468;2022-09-28T04:23:33;99414.31;;;9.10;70.15
68075;BME280;54864;52.002;5.468;2022-09-28T04:24:35;99412.97;;;9.03;70.40
68075;BME280;54864;52.002;5.468;2022-09-28T04:25:37;99416.16;;;8.94;70.16
68075;BME280;54864;52.002;5.468;2022-09-28T04:26:41;99416.81;;;8.98;70.46
68075;BME280;54864;52.002;5.468;2022-09-28T04:27:49;99410.16;;;8.92;70.34
68075;BME280;54864;52.002;5.468;2022-09-28T04:29:08;99407.91;;;8.86;70.45
68075;BME280;54864;52.002;5.468;2022-09-28T04:30:16;99414.66;;;8.90;70.20
68075;BME280;54864;52.002;5.468;2022-09-28T04:31:23;99401.22;;;8.80;70.47
68075;BME280;54864;52.002;5.468;2022-09-28T04:32:27;99396.91;;;8.79;70.50
68075;BME280;54864;52.002;5.468;2022-09-28T04:33:30;99412.41;;;8.84;70.38
68075;BME280;54864;52.002;5.468;2022-09-28T04:34:31;99404.16;;;8.76;70.19
68075;BME280;54864;52.002;5.468;2022-09-28T04:35:34;99421.50;;;8.78;70.24
68075;BME280;54864;52.002;5.468;2022-09-28T04:36:35;99412.97;;;8.75;69.80
68075;BME280;54864;52.002;5.468;2022-09-28T04:37:37;99415.97;;;8.69;70.16
68075;BME280;54864;52.002;5.468;2022-09-28T04:38:38;99418.31;;;8.73;70.00
68075;BME280;54864;52.002;5.468;2022-09-28T04:39:41;99413.34;;;8.69;70.16
68075;BME280;54864;52.002;5.468;2022-09-28T04:40:47;99410.78;;;8.67;70.11
68075;BME280;54864;52.002;5.468;2022-09-28T04:41:50;99414.53;;;8.63;70.28
68075;BME280;54864;52.002;5.468;2022-09-28T04:42:54;99407.13;;;8.55;70.26
68075;BME280;54864;52.002;5.468;2022-09-28T04:43:57;99426.47;;;8.69;69.87
68075;BME280;54864;52.002;5.468;2022-09-28T04:44:59;99419.16;;;8.74;70.12
68075;BME280;54864;52.002;5.468;2022-09-28T04:46:04;99418.19;;;8.61;70.35
68075;BME280;54864;52.002;5.468;2022-09-28T04:47:05;99424.41;;;8.60;70.22
68075;BME280;54864;52.002;5.468;2022-09-28T04:48:08;99415.94;;;8.54;70.40
68075;BME280;54864;52.002;5.468;2022-09-28T04:49:16;99409.19;;;8.50;70.13
68075;BME280;54864;52.002;5.468;2022-09-28T04:50:18;99415.09;;;8.54;70.36
68075;BME280;54864;52.002;5.468;2022-09-28T04:51:25;99425.34;;;8.58;70.07
68075;BME280;54864;52.002;5.468;2022-09-28T04:52:28;99425.59;;;8.54;70.32
68075;BME280;54864;52.002;5.468;2022-09-28T04:53:32;99432.72;;;8.52;70.44
68075;BME280;54864;52.002;5.468;2022-09-28T04:54:34;99416.56;;;8.44;70.36
68075;BME280;54864;52.002;5.468;2022-09-28T04:55:35;99417.75;;;8.38;70.51
68075;BME280;54864;52.002;5.468;2022-09-28T04:56:38;99428.41;;;8.51;70.53
68075;BME280;54864;52.002;5.468;2022-09-28T04:57:42;99411.56;;;8.39;70.65
68075;BME280;54864;52.002;5.468;2022-09-28T04:58:45;99411.56;;;8.39;70.52
68075;BME280;54864;52.002;5.468;2022-09-28T04:59:49;99421.22;;;8.39;70.76
68075;BME280;54864;52.002;5.468;2022-09-28T05:00:56;99424.00;;;8.51;70.33
68075;BME280;54864;52.002;5.468;2022-09-28T05:02:05;99422.22;;;8.52;70.06
68075;BME280;54864;52.002;5.468;2022-09-28T05:03:08;99420.03;;;8.44;70.92
68075;BME280;54864;52.002;5.468;2022-09-28T05:04:12;99429.28;;;8.36;70.53
68075;BME280;54864;52.002;5.468;2022-09-28T05:05:15;99412.44;;;8.24;70.91
68075;BME280;54864;52.002;5.468;2022-09-28T05:06:16;99427.06;;;8.28;70.70
68075;BME280;54864;52.002;5.468;2022-09-28T05:07:18;99412.63;;;8.21;70.91
68075;BME280;54864;52.002;5.468;2022-09-28T05:08:24;99430.22;;;8.35;70.30
68075;BME280;54864;52.002;5.468;2022-09-28T05:09:26;99425.28;;;8.28;71.00
68075;BME280;54864;52.002;5.468;2022-09-28T05:10:27;99417.97;;;8.19;71.07
68075;BME280;54864;52.002;5.468;2022-09-28T05:11:31;99434.88;;;8.30;70.68
68075;BME280;54864;52.002;5.468;2022-09-28T05:12:32;99440.19;;;8.28;70.94
68075;BME280;54864;52.002;5.468;2022-09-28T05:13:39;99435.41;;;8.20;70.66
68075;BME280;54864;52.002;5.468;2022-09-28T05:14:50;99437.09;;;8.21;71.49
68075;BME280;54864;52.002;5.468;2022-09-28T05:15:53;99429.38;;;8.18;71.29
68075;BME280;54864;52.002;5.468;2022-09-28T05:16:56;99432.25;;;8.30;71.01
68075;BME280;54864;52.002;5.468;2022-09-28T05:17:57;99419.81;;;8.17;70.76
68075;BME280;54864;52.002;5.468;2022-09-28T05:19:08;99426.91;;;8.31;70.65
68075;BME280;54864;52.002;5.468;2022-09-28T05:20:10;99424.28;;;8.31;70.60
68075;BME280;54864;52.002;5.468;2022-09-28T05:21:15;99413.09;;;8.27;70.67
68075;BME280;54864;52.002;5.468;2022-09-28T05:22:44;99420.41;;;8.22;70.72
68075;BME280;54864;52.002;5.468;2022-09-28T05:23:48;99425.91;;;8.18;71.06
68075;BME280;54864;52.002;5.468;2022-09-28T05:24:49;99423.13;;;8.21;70.34
68075;BME280;54864;52.002;5.468;2022-09-28T05:25:52;99419.75;;;8.19;71.01
68075;BME280;54864;52.002;5.468;2022-09-28T05:26:53;99419.66;;;8.20;71.09
68075;BME280;54864;52.002;5.468;2022-09-28T05:27:55;99422.19;;;8.22;71.00
68075;BME280;54864;52.002;5.468;2022-09-28T05:28:57;99415.34;;;8.19;70.94
68075;BME280;54864;52.002;5.468;2022-09-28T05:29:59;99424.31;;;8.15;71.55
68075;BME280;54864;52.002;5.468;2022-09-28T05:31:02;99422.91;;;8.10;71.78
68075;BME280;54864;52.002;5.468;2022-09-28T05:32:04;99438.59;;;8.25;72.03
68075;BME280;54864;52.002;5.468;2022-09-28T05:33:10;99441.38;;;8.38;71.15
68075;BME280;54864;52.002;5.468;2022-09-28T05:34:22;99432.59;;;8.23;71.30
68075;BME280;54864;52.002;5.468;2022-09-28T05:35:27;99430.38;;;8.32;71.66
68075;BME280;54864;52.002;5.468;2022-09-28T05:36:38;99422.28;;;8.20;71.58
68075;BME280;54864;52.002;5.468;2022-09-28T05:37:42;99428.28;;;8.22;72.01
68075;BME280;54864;52.002;5.468;2022-09-28T05:38:48;99442.50;;;8.34;71.41
68075;BME280;54864;52.002;5.468;2022-09-28T05:39:53;99440.72;;;8.35;71.35
68075;BME280;54864;52.002;5.468;2022-09-28T05:40:55;99425.22;;;8.30;71.17
68075;BME280;54864;52.002;5.468;2022-09-28T05:41:56;99442.81;;;8.44;70.85
68075;BME280;54864;52.002;5.468;2022-09-28T05:42:59;99425.38;;;8.27;71.12
68075;BME280;54864;52.002;5.468;2022-09-28T05:44:01;99429.78;;;8.26;70.71
68075;BME280;54864;52.002;5.468;2022-09-28T05:45:04;99443.50;;;8.32;71.25
68075;BME280;54864;52.002;5.468;2022-09-28T05:46:05;99440.88;;;8.32;71.08
68075;BME280;54864;52.002;5.468;2022-09-28T05:47:08;99436.16;;;8.22;71.09
68075;BME280;54864;52.002;5.468;2022-09-28T05:48:11;99439.94;;;8.33;71.21
68075;BME280;54864;52.002;5.468;2022-09-28T05:49:13;99441.97;;;8.27;71.33
68075;BME280;54864;52.002;5.468;2022-09-28T05:50:16;99431.75;;;8.23;71.08
68075;BME280;54864;52.002;5.468;2022-09-28T05:51:24;99439.72;;;8.21;70.99
68075;BME280;54864;52.002;5.468;2022-09-28T05:52:26;99436.25;;;8.21;71.03
68075;BME280;54864;52.002;5.468;2022-09-28T05:53:27;99435.22;;;8.23;71.01
68075;BME280;54864;52.002;5.468;2022-09-28T05:54:39;99439.53;;;8.24;71.39
68075;BME280;54864;52.002;5.468;2022-09-28T05:55:43;99451.47;;;8.30;71.10